sensor_id;sensor_type;location;lat;lon;timestamp;P1;durP1;ratioP1;P2;durP2;ratioP2
69502;SDS011;56704;54.242;12.442;2023-02-28T00:00:48;7.70;;;2.40;;
69502;SDS011;56704;54.242;12.442;2023-02-28T00:03:14;7.63;;;2.72;;
69502;SDS011;56704;54.242;12.442;2023-02-28T00:05:41;7.95;;;2.47;;
69502;SDS011;56704;54.242;12.442;2023-02-28T00:08:08;6.43;;;2.28;;
69502;SDS011;56704;54.242;12.442;2023-02-28T00:10:35;9.38;;;3.05;;
69502;SDS011;56704;54.242;12.442;2023-02-28T00:13:05;9.83;;;2.60;;
69502;SDS011;56704;54.242;12.442;2023-02-28T00:15:33;8.07;;;2.97;;
69502;SDS011;56704;54.242;12.442;2023-02-28T00:18:00;8.85;;;2.92;;
69502;SDS011;56704;54.242;12.442;2023-02-28T00:20:27;7.35;;;2.58;;
69502;SDS011;56704;54.242;12.442;2023-02-28T00:22:53;12.02;;;3.20;;
69502;SDS011;56704;54.242;12.442;2023-02-28T00:25:21;9.10;;;3.17;;
69502;SDS011;56704;54.242;12.442;2023-02-28T00:27:49;9.73;;;2.90;;
69502;SDS011;56704;54.242;12.442;2023-02-28T00:32:45;10.90;;;3.10;;
69502;SDS011;56704;54.242;12.442;2023-02-28T00:35:12;7.25;;;2.80;;
69502;SDS011;56704;54.242;12.442;2023-02-28T00:37:39;7.93;;;2.43;;
69502;SDS011;56704;54.242;12.442;2023-02-28T00:40:06;8.25;;;2.60;;
69502;SDS011;56704;54.242;12.442;2023-02-28T00:42:34;10.32;;;3.35;;
69502;SDS011;56704;54.242;12.442;2023-02-28T00:45:01;11.50;;;3.67;;
69502;SDS011;56704;54.242;12.442;2023-02-28T00:47:29;9.30;;;2.92;;
69502;SDS011;56704;54.242;12.442;2023-02-28T00:49:57;9.63;;;2.87;;
69502;SDS011;56704;54.242;12.442;2023-02-28T00:52:25;7.90;;;3.00;;
69502;SDS011;56704;54.242;12.442;2023-02-28T00:54:52;9.43;;;2.60;;
69502;SDS011;56704;54.242;12.442;2023-02-28T00:57:18;10.68;;;3.00;;
69502;SDS011;56704;54.242;12.442;2023-02-28T00:59:45;7.65;;;2.78;;
69502;SDS011;56704;54.242;12.442;2023-02-28T01:02:11;8.80;;;2.50;;
69502;SDS011;56704;54.242;12.442;2023-02-28T01:04:38;9.88;;;3.15;;
69502;SDS011;56704;54.242;12.442;2023-02-28T01:07:06;10.20;;;3.25;;
69502;SDS011;56704;54.242;12.442;2023-02-28T01:09:33;8.32;;;2.83;;
69502;SDS011;56704;54.242;12.442;2023-02-28T01:12:00;7.55;;;2.40;;
69502;SDS011;56704;54.242;12.442;2023-02-28T01:14:26;8.27;;;3.00;;
69502;SDS011;56704;54.242;12.442;2023-02-28T01:16:53;8.00;;;3.03;;
69502;SDS011;56704;54.242;12.442;2023-02-28T01:19:19;8.27;;;2.30;;
69502;SDS011;56704;54.242;12.442;2023-02-28T01:21:46;8.70;;;2.20;;
69502;SDS011;56704;54.242;12.442;2023-02-28T01:24:14;10.57;;;2.63;;
69502;SDS011;56704;54.242;12.442;2023-02-28T01:26:40;8.07;;;2.20;;
69502;SDS011;56704;54.242;12.442;2023-02-28T01:29:07;6.70;;;2.33;;
69502;SDS011;56704;54.242;12.442;2023-02-28T01:31:34;7.90;;;2.45;;
69502;SDS011;56704;54.242;12.442;2023-02-28T01:34:00;7.90;;;3.28;;
69502;SDS011;56704;54.242;12.442;2023-02-28T01:36:27;7.18;;;2.78;;
69502;SDS011;56704;54.242;12.442;2023-02-28T01:38:54;7.87;;;2.70;;
69502;SDS011;56704;54.242;12.442;2023-02-28T01:41:23;8.45;;;2.45;;
69502;SDS011;56704;54.242;12.442;2023-02-28T01:43:56;6.05;;;2.05;;
69502;SDS011;56704;54.242;12.442;2023-02-28T01:46:28;7.88;;;2.00;;
69502;SDS011;56704;54.242;12.442;2023-02-28T01:48:56;8.90;;;2.10;;
69502;SDS011;56704;54.242;12.442;2023-02-28T01:51:28;9.40;;;2.67;;
69502;SDS011;56704;54.242;12.442;2023-02-28T01:53:58;9.30;;;2.47;;
69502;SDS011;56704;54.242;12.442;2023-02-28T01:56:30;7.07;;;2.30;;
69502;SDS011;56704;54.242;12.442;2023-02-28T01:59:01;6.32;;;2.03;;
69502;SDS011;56704;54.242;12.442;2023-02-28T02:01:29;7.22;;;2.20;;
69502;SDS011;56704;54.242;12.442;2023-02-28T02:03:57;6.50;;;1.93;;
69502;SDS011;56704;54.242;12.442;2023-02-28T02:06:28;6.65;;;2.00;;
69502;SDS011;56704;54.242;12.442;2023-02-28T02:08:59;6.07;;;2.17;;
69502;SDS011;56704;54.242;12.442;2023-02-28T02:11:25;8.52;;;2.47;;
69502;SDS011;56704;54.242;12.442;2023-02-28T02:14:00;5.63;;;1.80;;
69502;SDS011;56704;54.242;12.442;2023-02-28T02:16:45;7.93;;;2.30;;
69502;SDS011;56704;54.242;12.442;2023-02-28T02:19:26;6.97;;;2.40;;
69502;SDS011;56704;54.242;12.442;2023-02-28T02:22:21;7.57;;;2.03;;
69502;SDS011;56704;54.242;12.442;2023-02-28T02:34:27;6.60;;;2.00;;
69502;SDS011;56704;54.242;12.442;2023-02-28T02:37:14;7.03;;;2.08;;
69502;SDS011;56704;54.242;12.442;2023-02-28T02:39:47;7.10;;;2.25;;
69502;SDS011;56704;54.242;12.442;2023-02-28T02:42:20;6.60;;;2.05;;
69502;SDS011;56704;54.242;12.442;2023-02-28T02:44:52;5.70;;;2.23;;
69502;SDS011;56704;54.242;12.442;2023-02-28T02:47:26;6.75;;;2.38;;
69502;SDS011;56704;54.242;12.442;2023-02-28T02:49:57;8.43;;;2.60;;
69502;SDS011;56704;54.242;12.442;2023-02-28T02:52:29;7.57;;;2.20;;
69502;SDS011;56704;54.242;12.442;2023-02-28T02:55:00;7.28;;;2.30;;
69502;SDS011;56704;54.242;12.442;2023-02-28T02:57:30;6.60;;;1.97;;
69502;SDS011;56704;54.242;12.442;2023-02-28T03:00:02;7.03;;;2.45;;
69502;SDS011;56704;54.242;12.442;2023-02-28T03:02:33;6.70;;;1.98;;
69502;SDS011;56704;54.242;12.442;2023-02-28T03:05:04;11.27;;;2.65;;
69502;SDS011;56704;54.242;12.442;2023-02-28T03:07:34;7.63;;;2.67;;
69502;SDS011;56704;54.242;12.442;2023-02-28T03:10:01;6.63;;;2.17;;
69502;SDS011;56704;54.242;12.442;2023-02-28T03:12:30;8.02;;;2.95;;
69502;SDS011;56704;54.242;12.442;2023-02-28T03:15:07;10.25;;;3.47;;
69502;SDS011;56704;54.242;12.442;2023-02-28T03:17:47;11.07;;;2.88;;
69502;SDS011;56704;54.242;12.442;2023-02-28T03:20:27;6.97;;;2.17;;
69502;SDS011;56704;54.242;12.442;2023-02-28T03:23:03;5.90;;;2.10;;
69502;SDS011;56704;54.242;12.442;2023-02-28T03:25:42;8.75;;;2.42;;
69502;SDS011;56704;54.242;12.442;2023-02-28T03:28:15;8.30;;;2.90;;
69502;SDS011;56704;54.242;12.442;2023-02-28T03:30:49;6.68;;;2.67;;
69502;SDS011;56704;54.242;12.442;2023-02-28T03:33:20;6.53;;;2.20;;
69502;SDS011;56704;54.242;12.442;2023-02-28T03:35:51;6.50;;;2.23;;
69502;SDS011;56704;54.242;12.442;2023-02-28T03:38:21;7.05;;;2.15;;
69502;SDS011;56704;54.242;12.442;2023-02-28T03:40:51;10.65;;;3.20;;
69502;SDS011;56704;54.242;12.442;2023-02-28T03:43:24;7.38;;;2.63;;
69502;SDS011;56704;54.242;12.442;2023-02-28T03:45:55;7.43;;;2.65;;
69502;SDS011;56704;54.242;12.442;2023-02-28T03:48:23;6.60;;;2.20;;
69502;SDS011;56704;54.242;12.442;2023-02-28T03:50:55;9.25;;;2.63;;
69502;SDS011;56704;54.242;12.442;2023-02-28T03:53:25;7.22;;;2.25;;
69502;SDS011;56704;54.242;12.442;2023-02-28T03:55:56;8.13;;;2.92;;
69502;SDS011;56704;54.242;12.442;2023-02-28T03:58:27;8.30;;;2.78;;
69502;SDS011;56704;54.242;12.442;2023-02-28T04:01:02;9.97;;;2.90;;
69502;SDS011;56704;54.242;12.442;2023-02-28T04:03:34;8.55;;;2.85;;
69502;SDS011;56704;54.242;12.442;2023-02-28T04:06:03;7.45;;;2.70;;
69502;SDS011;56704;54.242;12.442;2023-02-28T04:08:32;7.93;;;2.40;;
69502;SDS011;56704;54.242;12.442;2023-02-28T04:11:00;8.65;;;2.75;;
69502;SDS011;56704;54.242;12.442;2023-02-28T04:13:30;9.57;;;2.57;;
69502;SDS011;56704;54.242;12.442;2023-02-28T04:15:57;6.53;;;2.33;;
69502;SDS011;56704;54.242;12.442;2023-02-28T04:18:24;7.90;;;2.70;;
69502;SDS011;56704;54.242;12.442;2023-02-28T04:20:50;6.30;;;2.28;;
69502;SDS011;56704;54.242;12.442;2023-02-28T04:23:18;7.53;;;2.75;;
69502;SDS011;56704;54.242;12.442;2023-02-28T04:25:45;6.73;;;2.37;;
69502;SDS011;56704;54.242;12.442;2023-02-28T04:28:12;9.32;;;2.53;;
69502;SDS011;56704;54.242;12.442;2023-02-28T04:30:38;9.10;;;2.95;;
69502;SDS011;56704;54.242;12.442;2023-02-28T04:33:05;8.40;;;2.47;;
69502;SDS011;56704;54.242;12.442;2023-02-28T04:35:31;11.80;;;2.70;;
69502;SDS011;56704;54.242;12.442;2023-02-28T04:37:58;8.80;;;2.40;;
69502;SDS011;56704;54.242;12.442;2023-02-28T04:40:26;9.02;;;2.38;;
69502;SDS011;56704;54.242;12.442;2023-02-28T04:42:52;7.65;;;2.80;;
69502;SDS011;56704;54.242;12.442;2023-02-28T04:45:19;9.82;;;2.50;;
69502;SDS011;56704;54.242;12.442;2023-02-28T04:47:46;6.75;;;2.38;;
69502;SDS011;56704;54.242;12.442;2023-02-28T04:50:12;6.93;;;2.50;;
69502;SDS011;56704;54.242;12.442;2023-02-28T04:52:39;6.47;;;2.35;;
69502;SDS011;56704;54.242;12.442;2023-02-28T04:55:06;7.60;;;2.42;;
69502;SDS011;56704;54.242;12.442;2023-02-28T04:57:34;8.38;;;2.30;;
69502;SDS011;56704;54.242;12.442;2023-02-28T05:00:02;8.75;;;2.53;;
69502;SDS011;56704;54.242;12.442;2023-02-28T05:02:36;6.43;;;1.97;;
69502;SDS011;56704;54.242;12.442;2023-02-28T05:05:03;7.53;;;2.33;;
69502;SDS011;56704;54.242;12.442;2023-02-28T05:07:30;8.13;;;3.05;;
69502;SDS011;56704;54.242;12.442;2023-02-28T05:09:57;9.02;;;2.90;;
69502;SDS011;56704;54.242;12.442;2023-02-28T05:12:23;8.77;;;2.72;;
69502;SDS011;56704;54.242;12.442;2023-02-28T05:14:51;9.00;;;2.60;;
69502;SDS011;56704;54.242;12.442;2023-02-28T05:17:18;6.05;;;1.92;;
69502;SDS011;56704;54.242;12.442;2023-02-28T05:19:44;8.07;;;2.78;;
69502;SDS011;56704;54.242;12.442;2023-02-28T05:22:14;7.28;;;2.72;;
69502;SDS011;56704;54.242;12.442;2023-02-28T05:24:42;9.23;;;2.65;;
69502;SDS011;56704;54.242;12.442;2023-02-28T05:27:08;7.23;;;2.67;;
69502;SDS011;56704;54.242;12.442;2023-02-28T05:29:36;7.30;;;2.40;;
69502;SDS011;56704;54.242;12.442;2023-02-28T05:32:08;7.43;;;2.38;;
69502;SDS011;56704;54.242;12.442;2023-02-28T05:34:36;9.48;;;2.95;;
69502;SDS011;56704;54.242;12.442;2023-02-28T05:37:02;7.20;;;2.15;;
69502;SDS011;56704;54.242;12.442;2023-02-28T05:39:29;9.73;;;2.90;;
69502;SDS011;56704;54.242;12.442;2023-02-28T05:41:56;7.35;;;2.80;;
69502;SDS011;56704;54.242;12.442;2023-02-28T05:44:22;5.78;;;2.22;;
69502;SDS011;56704;54.242;12.442;2023-02-28T05:46:49;10.00;;;2.63;;
69502;SDS011;56704;54.242;12.442;2023-02-28T05:49:17;8.98;;;2.58;;
69502;SDS011;56704;54.242;12.442;2023-02-28T05:51:43;7.27;;;2.50;;
69502;SDS011;56704;54.242;12.442;2023-02-28T05:54:10;11.55;;;2.95;;
69502;SDS011;56704;54.242;12.442;2023-02-28T05:56:37;9.40;;;2.75;;
69502;SDS011;56704;54.242;12.442;2023-02-28T05:59:05;10.07;;;3.13;;
69502;SDS011;56704;54.242;12.442;2023-02-28T06:01:32;8.68;;;2.90;;
69502;SDS011;56704;54.242;12.442;2023-02-28T06:04:01;6.60;;;2.00;;
69502;SDS011;56704;54.242;12.442;2023-02-28T06:06:29;9.90;;;2.92;;
69502;SDS011;56704;54.242;12.442;2023-02-28T06:08:56;9.65;;;2.55;;
69502;SDS011;56704;54.242;12.442;2023-02-28T06:11:23;6.47;;;1.85;;
69502;SDS011;56704;54.242;12.442;2023-02-28T06:13:52;6.40;;;2.08;;
69502;SDS011;56704;54.242;12.442;2023-02-28T06:16:20;7.60;;;2.33;;
69502;SDS011;56704;54.242;12.442;2023-02-28T06:18:46;8.60;;;2.78;;
69502;SDS011;56704;54.242;12.442;2023-02-28T06:21:13;7.43;;;2.33;;
69502;SDS011;56704;54.242;12.442;2023-02-28T06:23:41;9.13;;;2.38;;
69502;SDS011;56704;54.242;12.442;2023-02-28T06:26:07;3.97;;;1.38;;
69502;SDS011;56704;54.242;12.442;2023-02-28T06:28:34;5.40;;;1.43;;
69502;SDS011;56704;54.242;12.442;2023-02-28T06:31:05;7.10;;;2.13;;
69502;SDS011;56704;54.242;12.442;2023-02-28T06:33:32;5.65;;;1.83;;
69502;SDS011;56704;54.242;12.442;2023-02-28T06:35:59;6.40;;;2.10;;
69502;SDS011;56704;54.242;12.442;2023-02-28T06:38:26;7.38;;;2.13;;
69502;SDS011;56704;54.242;12.442;2023-02-28T06:40:55;10.40;;;2.30;;
69502;SDS011;56704;54.242;12.442;2023-02-28T06:43:22;7.10;;;2.22;;
69502;SDS011;56704;54.242;12.442;2023-02-28T06:45:50;8.95;;;2.90;;
69502;SDS011;56704;54.242;12.442;2023-02-28T06:48:20;7.65;;;3.13;;
69502;SDS011;56704;54.242;12.442;2023-02-28T06:50:47;9.13;;;2.40;;
69502;SDS011;56704;54.242;12.442;2023-02-28T06:53:14;7.10;;;1.40;;
69502;SDS011;56704;54.242;12.442;2023-02-28T06:55:41;10.77;;;3.10;;
69502;SDS011;56704;54.242;12.442;2023-02-28T06:58:09;9.40;;;2.80;;
69502;SDS011;56704;54.242;12.442;2023-02-28T07:00:44;9.48;;;2.60;;
69502;SDS011;56704;54.242;12.442;2023-02-28T07:03:12;12.40;;;2.55;;
69502;SDS011;56704;54.242;12.442;2023-02-28T07:05:40;10.97;;;2.63;;
69502;SDS011;56704;54.242;12.442;2023-02-28T07:08:06;9.48;;;3.20;;
69502;SDS011;56704;54.242;12.442;2023-02-28T07:10:33;9.63;;;2.92;;
69502;SDS011;56704;54.242;12.442;2023-02-28T07:13:00;8.98;;;3.15;;
69502;SDS011;56704;54.242;12.442;2023-02-28T07:15:28;8.77;;;2.78;;
69502;SDS011;56704;54.242;12.442;2023-02-28T07:17:54;13.43;;;3.20;;
69502;SDS011;56704;54.242;12.442;2023-02-28T07:20:21;10.25;;;2.88;;
69502;SDS011;56704;54.242;12.442;2023-02-28T07:22:48;13.43;;;3.83;;
69502;SDS011;56704;54.242;12.442;2023-02-28T07:25:21;12.60;;;3.97;;
69502;SDS011;56704;54.242;12.442;2023-02-28T07:27:47;10.45;;;3.35;;
69502;SDS011;56704;54.242;12.442;2023-02-28T07:30:14;10.10;;;3.70;;
69502;SDS011;56704;54.242;12.442;2023-02-28T07:32:42;14.30;;;4.40;;
69502;SDS011;56704;54.242;12.442;2023-02-28T07:35:09;12.00;;;5.00;;
69502;SDS011;56704;54.242;12.442;2023-02-28T07:37:36;13.68;;;5.50;;
69502;SDS011;56704;54.242;12.442;2023-02-28T07:40:03;12.90;;;4.20;;
69502;SDS011;56704;54.242;12.442;2023-02-28T07:42:33;8.93;;;3.00;;
69502;SDS011;56704;54.242;12.442;2023-02-28T07:45:00;9.23;;;3.35;;
69502;SDS011;56704;54.242;12.442;2023-02-28T07:47:26;11.07;;;3.85;;
69502;SDS011;56704;54.242;12.442;2023-02-28T07:49:56;7.35;;;2.97;;
69502;SDS011;56704;54.242;12.442;2023-02-28T07:52:23;10.88;;;3.80;;
69502;SDS011;56704;54.242;12.442;2023-02-28T07:54:50;10.13;;;3.33;;
69502;SDS011;56704;54.242;12.442;2023-02-28T07:57:17;9.65;;;3.40;;
69502;SDS011;56704;54.242;12.442;2023-02-28T07:59:44;11.48;;;3.47;;
69502;SDS011;56704;54.242;12.442;2023-02-28T08:02:10;12.25;;;4.85;;
69502;SDS011;56704;54.242;12.442;2023-02-28T08:04:39;11.30;;;4.32;;
69502;SDS011;56704;54.242;12.442;2023-02-28T08:07:07;10.10;;;3.83;;
69502;SDS011;56704;54.242;12.442;2023-02-28T08:09:34;10.85;;;4.32;;
69502;SDS011;56704;54.242;12.442;2023-02-28T08:12:01;9.20;;;3.40;;
69502;SDS011;56704;54.242;12.442;2023-02-28T08:14:28;11.40;;;4.15;;
69502;SDS011;56704;54.242;12.442;2023-02-28T08:16:54;13.48;;;4.97;;
69502;SDS011;56704;54.242;12.442;2023-02-28T08:19:21;10.90;;;4.17;;
69502;SDS011;56704;54.242;12.442;2023-02-28T08:21:48;9.43;;;3.88;;
69502;SDS011;56704;54.242;12.442;2023-02-28T08:24:15;4.88;;;1.40;;
69502;SDS011;56704;54.242;12.442;2023-02-28T08:26:42;8.30;;;3.63;;
69502;SDS011;56704;54.242;12.442;2023-02-28T08:29:09;9.38;;;3.42;;
69502;SDS011;56704;54.242;12.442;2023-02-28T08:31:35;8.73;;;3.20;;
69502;SDS011;56704;54.242;12.442;2023-02-28T08:34:04;8.30;;;3.25;;
69502;SDS011;56704;54.242;12.442;2023-02-28T08:36:31;8.55;;;3.03;;
69502;SDS011;56704;54.242;12.442;2023-02-28T08:38:58;6.38;;;2.42;;
69502;SDS011;56704;54.242;12.442;2023-02-28T08:41:26;8.95;;;2.90;;
69502;SDS011;56704;54.242;12.442;2023-02-28T08:43:53;8.70;;;3.43;;
69502;SDS011;56704;54.242;12.442;2023-02-28T08:46:20;8.57;;;3.40;;
69502;SDS011;56704;54.242;12.442;2023-02-28T08:48:46;9.48;;;3.50;;
69502;SDS011;56704;54.242;12.442;2023-02-28T08:51:14;9.00;;;3.58;;
69502;SDS011;56704;54.242;12.442;2023-02-28T08:53:44;10.43;;;2.65;;
69502;SDS011;56704;54.242;12.442;2023-02-28T08:56:11;8.13;;;2.70;;
69502;SDS011;56704;54.242;12.442;2023-02-28T08:58:41;8.15;;;2.65;;
69502;SDS011;56704;54.242;12.442;2023-02-28T09:01:08;8.57;;;2.65;;
69502;SDS011;56704;54.242;12.442;2023-02-28T09:03:35;9.98;;;3.17;;
69502;SDS011;56704;54.242;12.442;2023-02-28T09:06:02;7.82;;;2.95;;
69502;SDS011;56704;54.242;12.442;2023-02-28T09:08:30;7.20;;;2.60;;
69502;SDS011;56704;54.242;12.442;2023-02-28T09:10:57;5.72;;;2.20;;
69502;SDS011;56704;54.242;12.442;2023-02-28T09:13:24;7.80;;;2.67;;
69502;SDS011;56704;54.242;12.442;2023-02-28T09:15:53;8.57;;;2.95;;
69502;SDS011;56704;54.242;12.442;2023-02-28T09:18:23;6.53;;;2.00;;
69502;SDS011;56704;54.242;12.442;2023-02-28T09:20:49;8.80;;;1.47;;
69502;SDS011;56704;54.242;12.442;2023-02-28T09:23:16;7.18;;;2.30;;
69502;SDS011;56704;54.242;12.442;2023-02-28T09:25:46;8.57;;;2.65;;
69502;SDS011;56704;54.242;12.442;2023-02-28T09:28:15;7.18;;;2.50;;
69502;SDS011;56704;54.242;12.442;2023-02-28T09:30:44;6.18;;;1.70;;
69502;SDS011;56704;54.242;12.442;2023-02-28T09:33:13;6.33;;;2.10;;
69502;SDS011;56704;54.242;12.442;2023-02-28T09:35:41;6.07;;;2.00;;
69502;SDS011;56704;54.242;12.442;2023-02-28T09:38:08;5.15;;;1.40;;
69502;SDS011;56704;54.242;12.442;2023-02-28T09:40:36;5.72;;;1.00;;
69502;SDS011;56704;54.242;12.442;2023-02-28T09:43:03;6.65;;;1.33;;
69502;SDS011;56704;54.242;12.442;2023-02-28T09:45:32;8.77;;;2.70;;
69502;SDS011;56704;54.242;12.442;2023-02-28T09:48:01;7.75;;;3.17;;
69502;SDS011;56704;54.242;12.442;2023-02-28T09:50:32;7.63;;;2.58;;
69502;SDS011;56704;54.242;12.442;2023-02-28T09:53:02;7.18;;;2.33;;
69502;SDS011;56704;54.242;12.442;2023-02-28T09:55:37;5.65;;;1.95;;
69502;SDS011;56704;54.242;12.442;2023-02-28T09:58:09;8.47;;;2.33;;
69502;SDS011;56704;54.242;12.442;2023-02-28T10:00:44;6.55;;;1.70;;
69502;SDS011;56704;54.242;12.442;2023-02-28T10:03:25;4.75;;;2.00;;
69502;SDS011;56704;54.242;12.442;2023-02-28T10:05:59;5.43;;;1.58;;
69502;SDS011;56704;54.242;12.442;2023-02-28T10:08:32;6.32;;;1.98;;
69502;SDS011;56704;54.242;12.442;2023-02-28T10:11:06;5.97;;;2.07;;
69502;SDS011;56704;54.242;12.442;2023-02-28T10:13:36;7.82;;;2.28;;
69502;SDS011;56704;54.242;12.442;2023-02-28T10:16:08;7.05;;;2.83;;
69502;SDS011;56704;54.242;12.442;2023-02-28T10:18:40;10.57;;;3.53;;
69502;SDS011;56704;54.242;12.442;2023-02-28T10:21:15;6.85;;;2.60;;
69502;SDS011;56704;54.242;12.442;2023-02-28T10:23:46;6.77;;;2.17;;
69502;SDS011;56704;54.242;12.442;2023-02-28T10:26:16;7.53;;;1.50;;
69502;SDS011;56704;54.242;12.442;2023-02-28T10:28:44;6.60;;;1.50;;
69502;SDS011;56704;54.242;12.442;2023-02-28T10:31:11;3.72;;;1.00;;
69502;SDS011;56704;54.242;12.442;2023-02-28T10:33:42;5.28;;;0.90;;
69502;SDS011;56704;54.242;12.442;2023-02-28T10:36:10;3.03;;;0.60;;
69502;SDS011;56704;54.242;12.442;2023-02-28T10:38:41;2.83;;;0.22;;
69502;SDS011;56704;54.242;12.442;2023-02-28T10:41:09;3.83;;;0.77;;
69502;SDS011;56704;54.242;12.442;2023-02-28T10:43:37;4.65;;;1.00;;
69502;SDS011;56704;54.242;12.442;2023-02-28T10:46:10;4.57;;;1.40;;
69502;SDS011;56704;54.242;12.442;2023-02-28T10:48:40;4.17;;;1.03;;
69502;SDS011;56704;54.242;12.442;2023-02-28T10:51:08;3.72;;;0.90;;
69502;SDS011;56704;54.242;12.442;2023-02-28T10:53:47;5.68;;;1.10;;
69502;SDS011;56704;54.242;12.442;2023-02-28T10:56:16;4.43;;;1.27;;
69502;SDS011;56704;54.242;12.442;2023-02-28T10:58:53;3.42;;;0.90;;
69502;SDS011;56704;54.242;12.442;2023-02-28T11:01:22;5.60;;;1.33;;
69502;SDS011;56704;54.242;12.442;2023-02-28T11:03:51;4.53;;;1.90;;
69502;SDS011;56704;54.242;12.442;2023-02-28T11:06:19;6.82;;;2.05;;
69502;SDS011;56704;54.242;12.442;2023-02-28T11:08:49;6.40;;;2.47;;
69502;SDS011;56704;54.242;12.442;2023-02-28T11:11:19;2.80;;;0.80;;
69502;SDS011;56704;54.242;12.442;2023-02-28T11:13:50;5.07;;;1.13;;
69502;SDS011;56704;54.242;12.442;2023-02-28T11:16:18;4.00;;;1.15;;
69502;SDS011;56704;54.242;12.442;2023-02-28T11:18:47;5.18;;;1.20;;
69502;SDS011;56704;54.242;12.442;2023-02-28T11:21:16;5.00;;;1.13;;
69502;SDS011;56704;54.242;12.442;2023-02-28T11:23:47;4.47;;;0.95;;
69502;SDS011;56704;54.242;12.442;2023-02-28T11:26:15;4.63;;;1.07;;
69502;SDS011;56704;54.242;12.442;2023-02-28T11:28:44;4.00;;;0.93;;
69502;SDS011;56704;54.242;12.442;2023-02-28T11:31:15;6.10;;;0.90;;
69502;SDS011;56704;54.242;12.442;2023-02-28T11:33:45;3.78;;;1.08;;
69502;SDS011;56704;54.242;12.442;2023-02-28T11:36:17;5.15;;;1.10;;
69502;SDS011;56704;54.242;12.442;2023-02-28T11:38:46;3.80;;;0.80;;
69502;SDS011;56704;54.242;12.442;2023-02-28T11:44:09;2.95;;;0.60;;
69502;SDS011;56704;54.242;12.442;2023-02-28T11:46:46;2.80;;;0.90;;
69502;SDS011;56704;54.242;12.442;2023-02-28T11:49:20;2.58;;;0.80;;
69502;SDS011;56704;54.242;12.442;2023-02-28T11:51:57;2.40;;;0.70;;
69502;SDS011;56704;54.242;12.442;2023-02-28T11:54:31;4.97;;;0.68;;
69502;SDS011;56704;54.242;12.442;2023-02-28T11:57:12;3.05;;;0.70;;
69502;SDS011;56704;54.242;12.442;2023-02-28T11:59:51;3.03;;;0.60;;
69502;SDS011;56704;54.242;12.442;2023-02-28T12:02:26;3.45;;;0.75;;
69502;SDS011;56704;54.242;12.442;2023-02-28T12:05:08;4.80;;;0.80;;
69502;SDS011;56704;54.242;12.442;2023-02-28T12:07:50;3.75;;;0.82;;
69502;SDS011;56704;54.242;12.442;2023-02-28T12:10:25;3.67;;;0.70;;
69502;SDS011;56704;54.242;12.442;2023-02-28T12:13:00;5.45;;;0.70;;
69502;SDS011;56704;54.242;12.442;2023-02-28T12:15:45;3.17;;;0.60;;
69502;SDS011;56704;54.242;12.442;2023-02-28T12:18:36;4.07;;;0.60;;
69502;SDS011;56704;54.242;12.442;2023-02-28T12:21:31;6.20;;;1.17;;
69502;SDS011;56704;54.242;12.442;2023-02-28T12:24:08;3.60;;;0.85;;
69502;SDS011;56704;54.242;12.442;2023-02-28T12:26:48;3.38;;;0.70;;
69502;SDS011;56704;54.242;12.442;2023-02-28T12:29:19;4.43;;;0.90;;
69502;SDS011;56704;54.242;12.442;2023-02-28T12:31:49;4.63;;;1.40;;
69502;SDS011;56704;54.242;12.442;2023-02-28T12:34:20;7.45;;;1.63;;
69502;SDS011;56704;54.242;12.442;2023-02-28T12:36:49;7.30;;;1.27;;
69502;SDS011;56704;54.242;12.442;2023-02-28T12:39:18;2.30;;;0.50;;
69502;SDS011;56704;54.242;12.442;2023-02-28T12:41:51;3.97;;;0.80;;
69502;SDS011;56704;54.242;12.442;2023-02-28T12:44:21;3.53;;;0.60;;
69502;SDS011;56704;54.242;12.442;2023-02-28T12:46:54;6.88;;;1.40;;
69502;SDS011;56704;54.242;12.442;2023-02-28T12:49:25;4.47;;;0.80;;
69502;SDS011;56704;54.242;12.442;2023-02-28T12:51:56;5.50;;;0.90;;
69502;SDS011;56704;54.242;12.442;2023-02-28T12:54:26;3.70;;;0.50;;
69502;SDS011;56704;54.242;12.442;2023-02-28T12:56:58;3.70;;;0.90;;
69502;SDS011;56704;54.242;12.442;2023-02-28T12:59:35;4.90;;;1.23;;
69502;SDS011;56704;54.242;12.442;2023-02-28T13:05:38;4.65;;;1.25;;
69502;SDS011;56704;54.242;12.442;2023-02-28T13:11:08;6.03;;;1.37;;
69502;SDS011;56704;54.242;12.442;2023-02-28T13:13:55;5.18;;;1.17;;
69502;SDS011;56704;54.242;12.442;2023-02-28T13:16:25;4.50;;;1.27;;
69502;SDS011;56704;54.242;12.442;2023-02-28T13:18:52;3.53;;;1.00;;
69502;SDS011;56704;54.242;12.442;2023-02-28T13:21:35;4.28;;;1.23;;
69502;SDS011;56704;54.242;12.442;2023-02-28T13:24:09;5.97;;;1.67;;
69502;SDS011;56704;54.242;12.442;2023-02-28T13:29:52;2.97;;;1.00;;
69502;SDS011;56704;54.242;12.442;2023-02-28T13:32:27;5.88;;;1.90;;
69502;SDS011;56704;54.242;12.442;2023-02-28T13:38:12;3.67;;;1.27;;
69502;SDS011;56704;54.242;12.442;2023-02-28T13:40:51;5.45;;;1.60;;
69502;SDS011;56704;54.242;12.442;2023-02-28T13:43:18;3.40;;;1.10;;
69502;SDS011;56704;54.242;12.442;2023-02-28T13:48:35;2.13;;;0.68;;
69502;SDS011;56704;54.242;12.442;2023-02-28T13:54:20;6.85;;;2.88;;
69502;SDS011;56704;54.242;12.442;2023-02-28T13:56:56;3.53;;;1.10;;
69502;SDS011;56704;54.242;12.442;2023-02-28T13:59:36;7.18;;;1.00;;
69502;SDS011;56704;54.242;12.442;2023-02-28T14:05:11;2.57;;;0.73;;
69502;SDS011;56704;54.242;12.442;2023-02-28T14:07:41;2.85;;;0.70;;
69502;SDS011;56704;54.242;12.442;2023-02-28T14:10:19;4.18;;;1.10;;
69502;SDS011;56704;54.242;12.442;2023-02-28T14:12:54;3.38;;;0.80;;
69502;SDS011;56704;54.242;12.442;2023-02-28T14:15:30;2.92;;;0.85;;
69502;SDS011;56704;54.242;12.442;2023-02-28T14:18:05;1.97;;;0.50;;
69502;SDS011;56704;54.242;12.442;2023-02-28T14:20:42;2.28;;;0.50;;
69502;SDS011;56704;54.242;12.442;2023-02-28T14:23:10;3.35;;;0.80;;
69502;SDS011;56704;54.242;12.442;2023-02-28T14:25:44;1.85;;;0.50;;
69502;SDS011;56704;54.242;12.442;2023-02-28T14:28:18;1.90;;;0.40;;
69502;SDS011;56704;54.242;12.442;2023-02-28T14:30:57;2.40;;;0.30;;
69502;SDS011;56704;54.242;12.442;2023-02-28T14:33:35;1.42;;;0.30;;
69502;SDS011;56704;54.242;12.442;2023-02-28T14:36:26;1.50;;;0.40;;
69502;SDS011;56704;54.242;12.442;2023-02-28T14:38:58;2.33;;;0.50;;
69502;SDS011;56704;54.242;12.442;2023-02-28T14:41:29;1.70;;;0.50;;
69502;SDS011;56704;54.242;12.442;2023-02-28T14:43:57;2.90;;;0.60;;
69502;SDS011;56704;54.242;12.442;2023-02-28T14:46:26;3.85;;;0.80;;
69502;SDS011;56704;54.242;12.442;2023-02-28T14:49:00;4.03;;;0.85;;
69502;SDS011;56704;54.242;12.442;2023-02-28T14:51:28;4.65;;;1.48;;
69502;SDS011;56704;54.242;12.442;2023-02-28T14:53:56;3.22;;;1.15;;
69502;SDS011;56704;54.242;12.442;2023-02-28T14:56:26;3.43;;;0.50;;
69502;SDS011;56704;54.242;12.442;2023-02-28T14:58:58;2.67;;;0.70;;
69502;SDS011;56704;54.242;12.442;2023-02-28T15:01:25;5.95;;;0.60;;
69502;SDS011;56704;54.242;12.442;2023-02-28T15:03:59;3.63;;;0.80;;
69502;SDS011;56704;54.242;12.442;2023-02-28T15:06:30;3.38;;;1.20;;
69502;SDS011;56704;54.242;12.442;2023-02-28T15:09:07;3.83;;;1.40;;
69502;SDS011;56704;54.242;12.442;2023-02-28T15:11:40;2.88;;;0.75;;
69502;SDS011;56704;54.242;12.442;2023-02-28T15:14:12;2.95;;;0.60;;
69502;SDS011;56704;54.242;12.442;2023-02-28T15:16:43;2.53;;;0.55;;
69502;SDS011;56704;54.242;12.442;2023-02-28T15:19:13;2.28;;;0.50;;
69502;SDS011;56704;54.242;12.442;2023-02-28T15:21:45;2.53;;;0.50;;
69502;SDS011;56704;54.242;12.442;2023-02-28T15:24:17;2.38;;;0.70;;
69502;SDS011;56704;54.242;12.442;2023-02-28T15:26:50;1.92;;;0.35;;